Terminal Aerodrome Forecast
Issued by NWS Tulsa, OK

Home | Current Version | Previous Version | Text Only | Print | Product List | Glossary Off
Versions: 1 2 3 4 5 6 7 8 9 10 11 12 13 14

000
FTUS44 KTSA 291720
TAFTUL
TAF
KTUL 291720Z 2918/3018 01008KT P6SM VCTS BKN035CB BKN120
     FM300000 05004KT P6SM BKN250
     FM301500 09004KT P6SM SCT050=

USA.gov is the U.S. government's official web portal to all federal, state and local government web resources and services.